This is the latest recevied weather packets stored in our database for station/object KE8GJZ-2. If no packets are shown the sender has not sent any weather packets the latest 10 day(s).
| Time | Temp. | Humidity | Pressure | Rain* | Wind** | Luminosity | Snow |
|---|---|---|---|---|---|---|---|
| 1777749299 | 8.33° C | 55% | 1018.1 hPa | 0 mm | - | 726 W/m² | - |
| 1777748996 | 8.33° C | 52% | 1018.1 hPa | 0 mm | - | 766 W/m² | - |
| 1777748693 | 8.33° C | 53% | 1018.4 hPa | 0 mm | - | 723 W/m² | - |
| 1777748389 | 8.89° C | 50% | 1018 hPa | 0 mm | - | 349 W/m² | - |
| 1777748080 | 8.33° C | 53% | 1018.2 hPa | 0 mm | - | 717 W/m² | - |
| 1777747777 | 8.89° C | 55% | 1018.4 hPa | 0 mm | - | 150 W/m² | - |
| 1777747472 | 8.33° C | 50% | 1018.1 hPa | 0 mm | - | 138 W/m² | - |
| 1777747169 | 8.33° C | 53% | 1018.2 hPa | 0 mm | - | 212 W/m² | - |
| 1777746865 | 8.33° C | 56% | 1018.5 hPa | 0 mm | - | 187 W/m² | - |
| 1777746561 | 8.33° C | 50% | 1018.3 hPa | 0 mm | - | 435 W/m² | - |
| 1777746256 | 8.33° C | 57% | 1018.5 hPa | 0 mm | - | 144 W/m² | - |
| 1777745953 | 8.33° C | 54% | 1018.5 hPa | 0 mm | - | 337 W/m² | - |
| 1777745651 | 8.33° C | 55% | 1018.6 hPa | 0 mm | - | 761 W/m² | - |
| 1777745349 | 7.78° C | 59% | 1018.7 hPa | 0 mm | - | 726 W/m² | - |
| 1777745046 | 8.33° C | 53% | 1018.6 hPa | 0 mm | - | 135 W/m² | - |
| 1777744742 | 7.78° C | 52% | 1018.7 hPa | 0 mm | - | 767 W/m² | - |
| 1777744436 | 7.78° C | 52% | 1018.5 hPa | 0 mm | - | 127 W/m² | - |
| 1777744133 | 8.89° C | 53% | 1018.7 hPa | 0 mm | - | 228 W/m² | - |
| 1777743830 | 8.33° C | 51% | 1018.8 hPa | 0 mm | - | 787 W/m² | - |
| 1777743527 | 8.89° C | 56% | 1019 hPa | 0 mm | - | 796 W/m² | - |
| 1777743224 | 7.78° C | 55% | 1018.9 hPa | 0 mm | - | 800 W/m² | - |
| 1777742922 | 8.33° C | 52% | 1018.6 hPa | 0 mm | - | 184 W/m² | - |
| 1777742619 | 8.33° C | 52% | 1018.9 hPa | 0 mm | - | 196 W/m² | - |
| 1777742314 | 7.78° C | 55% | 1019.1 hPa | 0 mm | - | 807 W/m² | - |
| 1777742011 | 8.33° C | 53% | 1018.8 hPa | 0 mm | - | 725 W/m² | - |
* Rain latest hour (hover to see other rain measurements)
** Current wind speed in m/s (hover to see current wind gust speed)